Time;durP1;ratioP1;P1;durP2;ratioP2;P2;SDS_P1;SDS_P2;PMS_P1;PMS_P2;Temp;Humidity;BMP_temperature;BMP_pressure;BME280_temperature;BME280_humidity;BME280_pressure;Samples;Min_cycle;Max_cycle;Signal;HPM_P1;HPM_P2
2021/01/14 00:02:00;;;;;;;;;;;10.00;99.90;;;;;;4962140;28;20042;-91
2021/01/14 00:04:31;;;;;;;4.30;2.83;;;;;;;;;;5004881;28;19917;-90
2021/01/14 00:07:01;;;;;;;6.50;3.15;;;;;;;;;;5009184;23;20051;-92
2021/01/14 00:09:40;;;;;;;11.57;4.15;;;;;;;;;;5071366;28;20048;-91
2021/01/14 00:12:47;;;;;;;5.43;2.60;;;10.00;99.90;;;;;;5079729;28;20407;-91
2021/01/14 00:15:19;;;;;;;8.18;4.40;;;;;;;;;;5067551;28;20063;-92
2021/01/14 00:17:59;;;;;;;18.98;7.82;;;;;;;;;;5080076;28;20044;-92
2021/01/14 00:20:33;;;;;;;15.45;9.48;;;;;;;;;;5064880;28;20061;-92
2021/01/14 00:26:21;;;;;;;17.70;9.68;;;;;;;;;;5081160;28;20064;-93
2021/01/14 00:29:07;;;;;;;14.82;8.77;;;;;;;;;;5050332;28;20053;-94
2021/01/14 00:32:14;;;;;;;13.07;7.28;;;;;;;;;;5056795;28;20056;-93
2021/01/14 00:35:04;;;;;;;9.90;5.55;;;;;;;;;;5060991;28;20057;-93
2021/01/14 00:37:55;;;;;;;8.05;5.30;;;;;;;;;;5067714;28;20063;-94
2021/01/14 00:40:41;;;;;;;9.23;5.05;;;;;;;;;;5005917;28;20063;-93
2021/01/14 00:43:31;;;;;;;10.77;5.32;;;;;;;;;;5064495;28;20059;-95
2021/01/14 00:50:04;;;;;;;7.85;4.95;;;;;;;;;;5060365;28;20093;-93
2021/01/14 00:53:45;;;;;;;9.60;5.15;;;;;;;;;;5022382;28;20058;-94
2021/01/14 00:57:17;;;;;;;8.25;4.60;;;7.30;99.90;;;;;;5076168;22;20044;31
2021/01/14 01:03:59;;;;;;;9.80;5.63;;;;;;;;;;5036271;28;20025;-94
2021/01/14 01:07:11;;;;;;;7.82;4.57;;;;;;;;;;5051229;28;20047;-94
2021/01/14 01:10:14;;;;;;;7.30;4.55;;;;;;;;;;5034379;28;20050;-94
2021/01/14 01:13:22;;;;;;;8.38;4.95;;;;;;;;;;5047236;28;20025;-94
2021/01/14 01:16:25;;;;;;;7.53;5.25;;;;;;;;;;5026923;28;20038;-93
2021/01/14 01:23:08;;;;;;;7.75;4.28;;;;;;;;;;5025781;28;20052;-94
2021/01/14 01:26:42;;;;;;;7.88;5.30;;;;;;;;;;5044027;28;20049;-95
2021/01/14 01:30:06;;;;;;;8.65;4.78;;;;;;;;;;5047425;28;20057;-95
2021/01/14 01:33:20;;;;;;;6.00;4.30;;;6.70;99.90;;;;;;5018467;28;20057;-93
2021/01/14 01:37:27;;;;;;;7.07;3.97;;;6.90;99.90;;;;;;5041099;28;20030;-92
2021/01/14 01:40:27;;;;;;;5.50;3.75;;;;;;;;;;5062371;28;20052;-93
2021/01/14 01:44:15;;;;;;;5.68;4.15;;;;;;;;;;5034849;28;20048;-94
2021/01/14 01:47:37;;;;;;;4.28;3.65;;;;;;;;;;5116880;22;20041;-94
2021/01/14 01:51:52;;;;;;;6.60;3.78;;;;;;;;;;5074659;28;20056;-94
2021/01/14 01:55:37;;;;;;;;;;;;;;;;;;;;;
2021/01/14 01:59:02;;;;;;;6.15;4.00;;;;;;;;;;5073610;28;20048;-95
2021/01/14 02:02:39;;;;;;;9.23;4.82;;;;;;;;;;5017106;28;20060;-94
2021/01/14 02:05:30;;;;;;;8.13;4.22;;;;;;;;;;5013011;28;20103;-93
2021/01/14 02:08:43;;;;;;;6.57;3.92;;;;;;;;;;5045185;28;20053;-93
2021/01/14 02:11:47;;;;;;;12.75;6.63;;;;;;;;;;5030727;28;20045;-93
2021/01/14 02:14:57;;;;;;;5.53;3.75;;;;;;;;;;5007116;28;20058;-93
2021/01/14 02:29:37;;;;;;;10.50;6.25;;;;;;;;;;5014137;28;20054;-93
2021/01/14 02:33:17;;;;;;;7.97;5.10;;;;;;;;;;5035417;28;20044;-95
2021/01/14 02:36:40;;;;;;;8.73;4.70;;;6.30;99.90;;;;;;5028590;28;20049;-94
2021/01/14 02:40:16;;;;;;;9.95;6.03;;;;;;;;;;5057194;28;20067;-94
2021/01/14 02:43:15;;;;;;;12.80;6.03;;;;;;;;;;5041615;28;20052;-93
2021/01/14 02:46:12;;;;;;;8.48;4.60;;;;;;;;;;5049886;28;20061;-94
2021/01/14 02:49:28;;;;;;;9.43;5.15;;;;;;;;;;5045665;28;20057;-94
2021/01/14 02:52:21;;;;;;;9.00;5.03;;;;;;;;;;5014696;28;20054;-96
2021/01/14 02:55:37;;;;;;;7.38;4.90;;;;;;;;;;5040727;28;20049;-94
2021/01/14 02:58:27;;;;;;;7.65;5.50;;;;;;;;;;5028711;28;20056;-95
2021/01/14 03:01:22;;;;;;;10.27;6.15;;;;;;;;;;5035243;28;20058;-94
2021/01/14 03:04:46;;;;;;;9.32;5.32;;;;;;;;;;5016032;28;20061;-94
2021/01/14 03:07:31;;;;;;;10.55;5.78;;;;;;;;;;5012905;28;20042;-95
2021/01/14 03:10:35;;;;;;;8.45;5.47;;;;;;;;;;5034936;28;20053;-94
2021/01/14 03:13:52;;;;;;;9.73;5.03;;;;;;;;;;4988024;28;20059;-95
2021/01/14 03:16:58;;;;;;;11.43;5.57;;;;;;;;;;4966763;28;20057;-94
2021/01/14 03:19:48;;;;;;;9.90;6.10;;;;;;;;;;4940658;28;20051;-94
2021/01/14 03:22:33;;;;;;;9.40;5.18;;;;;;;;;;4963627;28;20051;-94
2021/01/14 03:25:19;;;;;;;9.50;5.43;;;;;;;;;;4975071;28;20507;-93
2021/01/14 03:28:05;;;;;;;11.63;5.53;;;;;;;;;;4961748;28;20046;-95
2021/01/14 03:30:53;;;;;;;11.65;5.65;;;;;;;;;;4971190;29;20047;-94
2021/01/14 03:33:41;;;;;;;10.32;5.63;;;;;;;;;;4990166;28;20050;-95
2021/01/14 03:36:32;;;;;;;10.82;5.80;;;;;;;;;;4993063;28;20047;-94
2021/01/14 03:39:08;;;;;;;11.52;6.00;;;;;;;;;;4963066;28;20051;-94
2021/01/14 03:42:05;;;;;;;9.95;6.20;;;;;;;;;;4986818;28;20106;-95
2021/01/14 03:44:52;;;;;;;14.20;5.65;;;;;;;;;;4945795;28;20053;-93
2021/01/14 03:47:36;;;;;;;9.60;5.20;;;;;;;;;;4962740;28;20057;-92
2021/01/14 03:50:19;;;;;;;9.38;5.68;;;;;;;;;;4923042;29;20055;-92
2021/01/14 03:53:03;;;;;;;10.95;5.60;;;;;;;;;;4927146;28;20047;-93
2021/01/14 03:55:50;;;;;;;11.27;5.95;;;;;;;;;;4952626;29;20063;-94
2021/01/14 03:58:36;;;;;;;16.70;6.72;;;;;;;;;;4911198;29;20081;-94
2021/01/14 04:01:27;;;;;;;12.77;6.47;;;;;;;;;;4936985;28;20044;-94
2021/01/14 04:04:14;;;;;;;11.75;6.15;;;;;;;;;;4976099;28;20061;-94
2021/01/14 04:07:20;;;;;;;13.25;6.78;;;;;;;;;;5006330;28;20049;-94
2021/01/14 04:09:58;;;;;;;12.93;6.28;;;;;;;;;;5027413;28;20049;-92
2021/01/14 04:12:43;;;;;;;12.88;7.13;;;;;;;;;;5007326;28;20049;-93
2021/01/14 04:15:31;;;;;;;12.27;5.93;;;;;;;;;;4980057;28;20042;-94
2021/01/14 04:18:34;;;;;;;12.05;6.15;;;;;;;;;;5023441;28;20053;-94
2021/01/14 04:21:25;;;;;;;11.63;6.63;;;;;;;;;;4995588;28;20058;-95
2021/01/14 04:24:12;;;;;;;;;;;;;;;;;;;;;
2021/01/14 04:27:22;;;;;;;13.43;6.18;;;;;;;;;;5028872;28;20054;-94
2021/01/14 04:30:35;;;;;;;13.45;6.05;;;;;;;;;;5005340;28;20047;-93
2021/01/14 04:33:30;;;;;;;14.68;6.65;;;;;;;;;;5008635;28;20065;-94
2021/01/14 04:36:46;;;;;;;12.57;5.65;;;;;;;;;;5017656;28;20050;-92
2021/01/14 04:40:03;;;;;;;16.88;6.70;;;;;;;;;;5020410;28;20046;-93
2021/01/14 04:43:01;;;;;;;11.88;5.70;;;;;;;;;;5005661;28;20515;-95
2021/01/14 04:46:04;;;;;;;12.95;5.90;;;;;;;;;;5012171;28;20050;-94
2021/01/14 04:49:14;;;;;;;13.45;6.85;;;;;;;;;;4996405;28;20042;-94
2021/01/14 04:52:04;;;;;;;12.48;5.03;;;;;;;;;;4994907;28;20050;-94
2021/01/14 04:55:25;;;;;;;13.07;6.25;;;6.30;99.90;;;;;;4983004;28;20057;-96
2021/01/14 04:58:08;;;;;;;11.85;6.07;;;;;;;;;;4994252;28;20064;-95
2021/01/14 05:00:50;;;;;;;8.85;5.40;;;;;;;;;;4988878;28;20058;-94
2021/01/14 05:03:42;;;;;;;11.15;5.95;;;;;;;;;;5000886;28;20053;-95
2021/01/14 05:06:40;;;;;;;12.50;6.15;;;;;;;;;;5016719;28;20069;-93
2021/01/14 05:09:48;;;;;;;13.30;5.45;;;;;;;;;;4983862;28;20046;-94
2021/01/14 05:12:58;;;;;;;11.10;5.88;;;;;;;;;;4990090;28;20046;-92
2021/01/14 05:15:51;;;;;;;14.93;6.22;;;;;;;;;;5014276;28;20061;-95
2021/01/14 05:18:42;;;;;;;11.88;5.60;;;;;;;;;;4999085;28;20042;-94
2021/01/14 05:21:36;;;;;;;11.05;5.45;;;;;;;;;;4988917;28;20056;-95
2021/01/14 05:24:18;;;;;;;9.48;4.78;;;;;;;;;;5004025;28;20505;-95
2021/01/14 05:27:24;;;;;;;14.55;6.75;;;;;;;;;;4995827;28;20061;-94
2021/01/14 05:30:14;;;;;;;12.43;5.63;;;;;;;;;;4995642;28;20050;-96
2021/01/14 05:33:03;;;;;;;9.70;5.25;;;;;;;;;;4977386;28;20043;-92
2021/01/14 05:35:47;;;;;;;11.43;4.60;;;;;;;;;;4991984;28;20057;-94
2021/01/14 05:38:21;;;;;;;11.65;5.70;;;;;;;;;;4987031;28;20056;-95
2021/01/14 05:41:27;;;;;;;11.07;5.13;;;;;;;;;;4994493;28;20060;-95
2021/01/14 05:44:14;;;;;;;10.00;4.75;;;;;;;;;;4994721;28;20054;-92
2021/01/14 05:46:47;;;;;;;7.45;4.15;;;;;;;;;;4972186;28;20050;-94
2021/01/14 05:49:32;;;;;;;9.20;4.93;;;;;;;;;;4986217;28;20050;-93
2021/01/14 05:52:02;;;;;;;11.23;5.17;;;;;;;;;;4972892;28;20058;-92
2021/01/14 05:54:54;;;;;;;11.80;5.95;;;;;;;;;;5001030;28;20054;-93
2021/01/14 05:57:53;;;;;;;10.45;5.40;;;;;;;;;;4986181;28;20057;-96
2021/01/14 06:00:41;;;;;;;10.32;5.50;;;;;;;;;;4990562;28;20050;-94
2021/01/14 06:03:32;;;;;;;9.50;4.97;;;;;;;;;;4987365;28;20054;-94
2021/01/14 06:06:22;;;;;;;9.73;5.32;;;;;;;;;;4969008;28;20056;-94
2021/01/14 06:09:11;;;;;;;9.00;5.03;;;;;;;;;;5015098;28;20050;-94
2021/01/14 06:12:10;;;;;;;13.35;5.68;;;;;;;;;;4997591;28;20062;-94
2021/01/14 06:14:56;;;;;;;14.80;5.85;;;;;;;;;;4981343;28;20049;-94
2021/01/14 06:17:40;;;;;;;13.07;6.78;;;;;;;;;;4984910;28;20064;-93
2021/01/14 06:20:29;;;;;;;12.10;7.93;;;;;;;;;;4987175;28;20160;-93
2021/01/14 06:23:06;;;;;;;13.10;6.03;;;;;;;;;;4980269;28;20061;-93
2021/01/14 06:25:47;;;;;;;10.85;5.47;;;;;;;;;;4979121;28;20539;-94
2021/01/14 06:28:34;;;;;;;14.77;7.18;;;;;;;;;;4979559;28;20057;-93
2021/01/14 06:31:08;;;;;;;8.05;4.50;;;;;;;;;;4962910;28;20227;-93
2021/01/14 06:33:38;;;;;;;11.85;5.97;;;;;;;;;;4957767;28;20370;-92
2021/01/14 06:36:20;;;;;;;11.98;5.18;;;;;;;;;;4994513;28;20568;-91
2021/01/14 06:39:01;;;;;;;9.05;4.55;;;;;;;;;;4971187;28;20058;-94
2021/01/14 06:41:38;;;;;;;14.27;5.78;;;;;;;;;;4987272;28;20072;-92
2021/01/14 06:44:12;;;;;;;9.98;4.90;;;;;;;;;;4968147;28;20058;-92
2021/01/14 06:46:55;;;;;;;9.80;5.32;;;;;;;;;;4978384;28;20499;-94
2021/01/14 06:49:30;;;;;;;14.80;6.22;;;;;;;;;;4997640;28;20054;-93
2021/01/14 06:52:14;;;;;;;7.82;4.78;;;;;;;;;;4989579;28;20050;-93
2021/01/14 06:54:50;;;;;;;9.63;4.28;;;;;;;;;;4991092;28;20061;-92
2021/01/14 06:57:36;;;;;;;8.27;4.03;;;6.30;99.90;;;;;;4977553;28;20058;-92
2021/01/14 07:00:05;;;;;;;8.43;4.55;;;;;;;;;;5008168;28;20046;-92
2021/01/14 07:02:39;;;;;;;10.15;4.90;;;;;;;;;;4996466;28;20065;-92
2021/01/14 07:05:58;;;;;;;10.15;4.85;;;6.40;99.90;;;;;;4971665;28;20047;-90
2021/01/14 07:08:47;;;;;;;8.13;4.82;;;6.40;99.90;;;;;;4899920;29;20060;-92
2021/01/14 07:11:24;;;;;;;7.90;4.50;;;6.40;99.90;;;;;;4992495;28;20094;-92
2021/01/14 07:13:57;;;;;;;6.95;4.25;;;;;;;;;;4947272;28;20042;-93
2021/01/14 07:16:33;;;;;;;5.32;3.42;;;;;;;;;;4987989;28;20050;-91
2021/01/14 07:19:02;;;;;;;6.33;4.17;;;;;;;;;;4995325;28;20047;-91
2021/01/14 07:21:35;;;;;;;5.65;3.53;;;;;;;;;;4989208;28;20299;-91
2021/01/14 07:24:19;;;;;;;6.88;4.20;;;;;;;;;;4980785;28;20521;-93
2021/01/14 07:27:01;;;;;;;7.10;3.80;;;;;;;;;;4976135;28;20049;-92
2021/01/14 07:29:41;;;;;;;5.85;4.28;;;;;;;;;;4990613;28;20065;-93
2021/01/14 07:32:15;;;;;;;6.30;3.72;;;;;;;;;;4992313;28;20050;-92
2021/01/14 07:34:59;;;;;;;8.43;4.82;;;;;;;;;;4976909;28;20042;-92
2021/01/14 07:38:07;;;;;;;8.57;4.45;;;6.30;99.90;;;;;;4970560;28;20776;-93
2021/01/14 07:40:52;;;;;;;8.20;3.85;;;;;;;;;;4994355;28;20046;-94
2021/01/14 07:44:26;;;;;;;7.10;3.72;;;6.40;99.90;;;;;;4999326;28;20032;-93
2021/01/14 07:47:48;;;;;;;7.13;3.55;;;;;;;;;;4955188;29;20069;-92
2021/01/14 07:51:10;;;;;;;7.63;4.00;;;;;;;;;;4964792;29;20051;-93
2021/01/14 07:54:07;;;;;;;10.50;5.68;;;;;;;;;;4953318;29;20061;-93
2021/01/14 07:56:48;;;;;;;9.27;4.43;;;;;;;;;;4945068;29;20063;-93
2021/01/14 08:03:14;;;;;;;6.05;4.05;;;;;;;;;;4966235;29;20063;-95
2021/01/14 08:06:24;;;;;;;8.60;4.55;;;;;;;;;;4956779;29;20066;-93
2021/01/14 08:09:23;;;;;;;6.63;4.20;;;;;;;;;;4941216;29;20597;-94
2021/01/14 08:12:15;;;;;;;9.23;3.40;;;;;;;;;;4983309;28;20050;-91
2021/01/14 08:14:46;;;;;;;7.63;4.15;;;;;;;;;;5017538;28;20046;-90
2021/01/14 08:17:40;;;;;;;6.93;3.97;;;;;;;;;;5010961;28;20058;-89
2021/01/14 08:20:16;;;;;;;8.05;4.15;;;;;;;;;;5010079;28;20046;-87
2021/01/14 08:22:46;;;;;;;8.10;4.38;;;;;;;;;;5018443;28;20061;-93
2021/01/14 08:25:16;;;;;;;9.32;4.45;;;6.20;99.90;;;;;;4990769;28;20052;-89
2021/01/14 08:27:48;;;;;;;6.03;4.47;;;;;;;;;;4988042;28;20060;-88
2021/01/14 08:30:20;;;;;;;10.32;5.28;;;;;;;;;;4997350;28;20061;-92
2021/01/14 08:33:01;;;;;;;6.35;3.90;;;;;;;;;;4985002;28;20046;-88
2021/01/14 08:35:39;;;;;;;8.63;4.80;;;6.10;99.90;;;;;;5003521;28;20054;-88
2021/01/14 08:38:07;;;;;;;8.30;4.15;;;;;;;;;;5014356;28;20069;-89
2021/01/14 08:40:38;;;;;;;7.15;4.22;;;;;;;;;;5007113;28;20059;-86
2021/01/14 08:43:10;;;;;;;8.85;4.35;;;6.00;99.90;;;;;;4989328;28;20057;-87
2021/01/14 08:45:44;;;;;;;8.13;4.13;;;;;;;;;;5001936;28;20069;-86
2021/01/14 08:48:13;;;;;;;6.90;4.60;;;;;;;;;;4982136;28;20041;-89
2021/01/14 08:50:50;;;;;;;10.35;4.90;;;;;;;;;;5007917;28;20417;-88
2021/01/14 08:53:18;;;;;;;9.07;4.65;;;;;;;;;;5012524;28;20049;-88
2021/01/14 08:55:53;;;;;;;8.05;4.97;;;;;;;;;;5013882;28;20049;-90
2021/01/14 08:58:50;;;;;;;8.00;4.30;;;6.00;99.90;;;;;;5007918;28;20052;-87
2021/01/14 09:01:21;;;;;;;5.63;4.30;;;;;;;;;;5024617;28;20498;-89
2021/01/14 09:03:53;;;;;;;10.82;5.43;;;6.00;99.90;;;;;;5002694;28;20285;-88
2021/01/14 09:06:39;;;;;;;9.00;3.85;;;;;;;;;;5025426;28;20046;-88
2021/01/14 09:09:13;;;;;;;7.30;4.00;;;;;;;;;;4980654;28;20414;-89
2021/01/14 09:11:41;;;;;;;7.35;4.60;;;;;;;;;;5005960;28;20401;-88
2021/01/14 09:14:14;;;;;;;8.63;4.70;;;5.80;99.90;;;;;;5027497;28;20057;-89
2021/01/14 09:16:48;;;;;;;4.38;2.67;;;6.00;99.90;;;;;;5025559;28;20083;-89
2021/01/14 09:19:20;;;;;;;7.43;3.25;;;5.90;99.90;;;;;;5022077;28;20045;-90
2021/01/14 09:21:48;;;;;;;5.53;3.10;;;;;;;;;;5004941;28;20144;-88
2021/01/14 09:24:17;;;;;;;7.95;3.47;;;5.80;99.90;;;;;;4996101;28;20053;-88
2021/01/14 09:26:49;;;;;;;6.18;3.53;;;5.90;99.90;;;;;;5026421;28;20054;-89
2021/01/14 09:29:21;;;;;;;4.95;3.50;;;;;;;;;;5022266;28;20050;-87
2021/01/14 09:31:48;;;;;;;5.60;3.70;;;;;;;;;;5013549;28;20158;-87
2021/01/14 09:34:16;;;;;;;4.70;2.85;;;;;;;;;;4987349;28;20053;-88
2021/01/14 09:36:44;;;;;;;9.65;4.20;;;;;;;;;;5010984;28;20048;-89
2021/01/14 09:39:16;;;;;;;4.88;3.83;;;;;;;;;;5013853;28;20053;-89
2021/01/14 09:41:46;;;;;;;7.07;3.38;;;;;;;;;;5013242;28;20060;-89
2021/01/14 09:44:16;;;;;;;4.00;3.00;;;;;;;;;;5013525;28;20045;-90
2021/01/14 09:46:50;;;;;;;3.08;2.78;;;;;;;;;;5006248;28;20046;-88
2021/01/14 09:49:25;;;;;;;5.67;4.10;;;;;;;;;;4988597;28;20050;-90
2021/01/14 09:51:54;;;;;;;4.78;3.10;;;;;;;;;;4992493;28;20295;-89
2021/01/14 09:54:28;;;;;;;4.32;3.03;;;;;;;;;;5030771;28;20041;-89
2021/01/14 09:56:57;;;;;;;4.63;2.95;;;;;;;;;;5015957;28;20049;-89
2021/01/14 09:59:33;;;;;;;5.30;3.30;;;6.00;99.90;;;;;;5032487;28;20064;-89
2021/01/14 10:02:08;;;;;;;4.38;2.80;;;;;;;;;;4998805;28;20391;-89
2021/01/14 10:04:37;;;;;;;2.95;2.50;;;;;;;;;;5009713;28;20049;-88
2021/01/14 10:07:15;;;;;;;10.13;3.22;;;;;;;;;;5030437;28;20064;-90
2021/01/14 10:09:43;;;;;;;4.43;3.17;;;;;;;;;;5010771;28;20058;-90
2021/01/14 10:12:11;;;;;;;6.10;2.90;;;;;;;;;;4998113;28;20685;-88
2021/01/14 10:14:41;;;;;;;6.13;2.85;;;;;;;;;;5003275;28;20271;-90
2021/01/14 10:17:18;;;;;;;4.45;2.80;;;;;;;;;;5000776;28;20535;-89
2021/01/14 10:19:49;;;;;;;3.10;2.80;;;;;;;;;;5014844;28;20125;-89
2021/01/14 10:22:23;;;;;;;4.05;3.10;;;;;;;;;;5013478;28;20509;-91
2021/01/14 10:25:04;;;;;;;5.20;2.45;;;;;;;;;;4997445;28;20053;-91
2021/01/14 10:27:32;;;;;;;4.90;3.03;;;;;;;;;;5015918;28;20087;-90
2021/01/14 10:30:17;;;;;;;3.42;2.45;;;;;;;;;;4995749;28;20057;-89
2021/01/14 10:32:47;;;;;;;4.75;3.30;;;;;;;;;;5015478;28;20061;-89
2021/01/14 10:35:26;;;;;;;3.75;2.90;;;;;;;;;;5000173;28;20042;-90
2021/01/14 10:38:13;;;;;;;3.42;3.13;;;6.00;99.90;;;;;;5016870;28;20493;-89
2021/01/14 10:40:45;;;;;;;4.88;3.53;;;;;;;;;;5029803;28;20049;-89
2021/01/14 10:43:35;;;;;;;4.80;2.55;;;6.00;99.90;;;;;;5020234;28;20053;-89
2021/01/14 10:46:04;;;;;;;5.65;2.88;;;;;;;;;;5027503;28;20056;-89
2021/01/14 10:48:39;;;;;;;5.20;3.80;;;;;;;;;;4994099;28;20061;-88
2021/01/14 10:51:11;;;;;;;5.20;2.38;;;;;;;;;;5003705;28;20072;-90
2021/01/14 10:53:41;;;;;;;4.43;2.85;;;;;;;;;;5018678;28;20046;-90
2021/01/14 10:56:19;;;;;;;4.82;2.55;;;;;;;;;;5035289;28;20065;-89
2021/01/14 10:58:56;;;;;;;4.78;4.10;;;6.10;99.90;;;;;;5038809;28;20056;-90
2021/01/14 11:01:27;;;;;;;6.55;3.08;;;;;;;;;;5001395;28;20390;-90
2021/01/14 11:04:06;;;;;;;9.55;4.07;;;6.10;99.90;;;;;;4997256;28;20045;-89
2021/01/14 11:06:36;;;;;;;4.00;3.28;;;;;;;;;;5027523;28;20058;-89
2021/01/14 11:09:06;;;;;;;2.95;2.50;;;6.10;99.90;;;;;;5036931;28;20061;-90
2021/01/14 11:11:35;;;;;;;3.65;2.20;;;;;;;;;;5031776;28;20050;-88
2021/01/14 11:14:15;;;;;;;4.32;2.30;;;;;;;;;;5003654;28;20046;-93
2021/01/14 11:16:50;;;;;;;3.95;2.65;;;;;;;;;;5038045;28;20053;-89
2021/01/14 11:20:46;;;;;;;3.92;2.65;;;;;;;;;;5023915;28;20052;-91
2021/01/14 11:26:30;;;;;;;3.47;2.58;;;;;;;;;;4890380;29;20059;-91
2021/01/14 11:29:02;;;;;;;3.38;2.65;;;;;;;;;;4851826;29;20060;-92
2021/01/14 11:49:49;;;;;;;5.55;2.95;;;;;;;;;;4807798;30;20051;-93
2021/01/14 12:06:52;;;;;;;5.22;3.80;;;;;;;;;;4806407;29;20416;-94
2021/01/14 12:09:42;;;;;;;4.00;2.90;;;;;;;;;;4787384;30;20055;-93
2021/01/14 12:12:29;;;;;;;9.80;3.60;;;;;;;;;;4780180;29;20051;-92
2021/01/14 12:15:31;;;;;;;;;;;6.10;99.90;;;;;;4824155;29;20054;-95
2021/01/14 12:22:52;;;;;;;6.10;3.80;;;;;;;;;;5039521;23;20045;-96
2021/01/14 12:38:34;;;;;;;6.50;3.08;;;;;;;;;;5856714;24;20043;-90
2021/01/14 12:53:01;;;;;;;6.78;4.13;;;;;;;;;;4997612;24;20060;-93
2021/01/14 13:11:58;;;;;;;10.60;5.03;;;;;;;;;;4832522;29;20046;-90
2021/01/14 13:14:28;;;;;;;8.18;4.95;;;;;;;;;;4803300;29;20065;-90
2021/01/14 13:17:19;;;;;;;6.75;3.88;;;;;;;;;;4804004;29;20043;-90
2021/01/14 13:20:55;;;;;;;8.40;4.57;;;5.90;99.90;;;;;;4834067;29;20064;-96
2021/01/14 13:24:09;;;;;;;7.90;5.35;;;;;;;;;;4827819;29;20158;-94
2021/01/14 13:27:31;;;;;;;12.00;5.72;;;;;;;;;;4832126;29;20055;-93
2021/01/14 13:30:05;;;;;;;7.55;4.63;;;;;;;;;;4818029;29;20050;-92
2021/01/14 13:33:11;;;;;;;7.90;4.57;;;;;;;;;;4827664;29;20055;-92
2021/01/14 13:36:21;;;;;;;3.63;3.10;;;;;;;;;;4813277;29;20054;-92
2021/01/14 13:39:35;;;;;;;8.25;3.10;;;;;;;;;;4832863;24;20057;-92
2021/01/14 13:42:25;;;;;;;3.80;2.67;;;;;;;;;;4832255;29;20062;-93
2021/01/14 13:45:39;;;;;;;4.53;3.10;;;;;;;;;;4837485;29;20053;-92
2021/01/14 13:49:00;;;;;;;9.30;4.05;;;;;;;;;;4827857;29;20058;-91
2021/01/14 13:52:29;;;;;;;11.25;4.80;;;;;;;;;;4833879;29;20062;-93
2021/01/14 13:56:02;;;;;;;;;;;;;;;;;;;;;
2021/01/14 13:59:31;;;;;;;7.00;4.70;;;;;;;;;;4834311;29;20054;-93
2021/01/14 14:02:49;;;;;;;6.22;3.50;;;;;;;;;;4804182;29;20055;-93
2021/01/14 14:05:33;;;;;;;6.07;3.55;;;;;;;;;;4795497;29;20058;-93
2021/01/14 14:08:53;;;;;;;9.00;3.63;;;;;;;;;;4800471;29;20081;-94
2021/01/14 14:11:59;;;;;;;12.73;4.88;;;;;;;;;;4777006;29;20058;-93
2021/01/14 14:14:47;;;;;;;11.45;4.78;;;;;;;;;;4801428;29;20054;-92
2021/01/14 14:17:32;;;;;;;9.73;4.40;;;;;;;;;;4804684;29;20050;-93
2021/01/14 14:20:57;;;;;;;10.90;4.88;;;;;;;;;;4896367;24;20038;-92
2021/01/14 14:35:27;;;;;;;7.53;4.18;;;;;;;;;;4983695;23;20062;-94
2021/01/14 14:42:10;;;;;;;6.97;3.47;;;;;;;;;;4823127;29;20423;-91
2021/01/14 14:44:41;;;;;;;7.90;3.65;;;;;;;;;;4806370;29;20054;-90
2021/01/14 14:50:36;;;;;;;7.72;3.50;;;;;;;;;;4855709;29;20050;-92
2021/01/14 14:53:17;;;;;;;5.53;3.83;;;;;;;;;;4865414;24;20058;-94
2021/01/14 14:56:11;;;;;;;8.73;5.20;;;;;;;;;;4837468;29;20058;-92
2021/01/14 15:02:44;;;;;;;6.90;4.60;;;;;;;;;;4818722;29;20430;-92
2021/01/14 15:05:39;;;;;;;4.82;3.00;;;;;;;;;;4820479;29;20050;-93
2021/01/14 15:08:29;;;;;;;5.57;2.97;;;;;;;;;;4800606;29;20065;-92
2021/01/14 15:11:18;;;;;;;4.90;3.15;;;;;;;;;;4811853;29;20054;-95
2021/01/14 15:14:16;;;;;;;5.93;2.65;;;;;;;;;;4816493;29;20058;-90
2021/01/14 15:17:09;;;;;;;3.10;2.35;;;;;;;;;;4833658;29;20050;-93
2021/01/14 15:28:06;;;;;;;11.40;3.20;;;;;;;;;;4827388;29;20064;-92
2021/01/14 15:30:48;;;;;;;3.88;2.63;;;;;;;;;;4811936;29;20298;-93
2021/01/14 15:34:08;;;;;;;5.13;3.10;;;;;;;;;;4820036;29;20055;-92
2021/01/14 15:36:41;;;;;;;3.72;2.42;;;;;;;;;;4788219;29;20051;-93
2021/01/14 15:39:19;;;;;;;7.32;3.45;;;;;;;;;;4792719;29;20062;-94
2021/01/14 15:42:27;;;;;;;3.88;2.22;;;;;;;;;;4807344;29;20431;-95
2021/01/14 15:45:39;;;;;;;2.83;2.50;;;;;;;;;;4812276;29;20039;-96
2021/01/14 15:59:40;;;;;;;4.65;2.33;;;;;;;;;;4848370;29;20055;-92
2021/01/14 16:02:18;;;;;;;3.15;2.72;;;;;;;;;;4887830;24;20069;-94
2021/01/14 16:05:54;;;;;;;2.88;2.22;;;;;;;;;;4872853;24;20061;-92
2021/01/14 16:08:27;;;;;;;4.15;2.13;;;;;;;;;;4841123;24;20088;-95
2021/01/14 16:11:09;;;;;;;2.50;2.08;;;;;;;;;;4807907;29;20054;-92
2021/01/14 16:13:43;;;;;;;4.07;2.33;;;;;;;;;;4829958;29;20066;-90
2021/01/14 16:16:18;;;;;;;5.78;2.55;;;;;;;;;;4834331;29;20353;-91
2021/01/14 16:18:55;;;;;;;3.42;2.13;;;;;;;;;;4837552;29;20059;-94
2021/01/14 16:21:26;;;;;;;7.43;2.47;;;;;;;;;;4826047;29;20412;-92
2021/01/14 16:24:08;;;;;;;3.38;2.20;;;;;;;;;;4833485;29;20050;-93
2021/01/14 16:27:14;;;;;;;5.60;2.92;;;;;;;;;;4858868;29;20062;-92
2021/01/14 16:33:00;;;;;;;3.35;2.38;;;;;;;;;;4838054;29;20246;-93
2021/01/14 16:35:37;;;;;;;3.30;2.60;;;;;;;;;;4824514;29;20061;-92
2021/01/14 16:38:10;;;;;;;3.47;2.20;;;;;;;;;;4819356;29;20062;-94
2021/01/14 16:40:41;;;;;;;5.78;3.38;;;;;;;;;;4833237;29;20065;-92
2021/01/14 16:43:12;;;;;;;5.32;2.75;;;;;;;;;;4779018;29;20056;-93
2021/01/14 16:45:49;;;;;;;6.55;3.20;;;;;;;;;;4844237;29;20042;-93
2021/01/14 16:48:18;;;;;;;4.22;3.08;;;4.10;99.90;;;;;;4834898;29;20061;-87
2021/01/14 16:50:50;;;;;;;4.57;2.42;;;4.40;99.90;;;;;;4834411;29;20060;-91
2021/01/14 16:53:18;;;;;;;7.68;4.18;;;;;;;;;;4817790;29;20054;-88
2021/01/14 16:55:48;;;;;;;5.07;3.40;;;;;;;;;;4817512;29;20058;-93
2021/01/14 16:58:41;;;;;;;9.52;3.65;;;;;;;;;;4807527;29;20053;-95
2021/01/14 17:02:00;;;;;;;;;;;4.00;99.90;;;;;;4853239;29;20065;-93
2021/01/14 17:04:35;;;;;;;6.78;4.22;;;;;;;;;;4820127;29;19933;-92
2021/01/14 17:07:05;;;;;;;5.30;3.47;;;;;;;;;;4820028;29;20043;-92
2021/01/14 17:09:38;;;;;;;7.18;4.05;;;;;;;;;;4802670;29;20516;-92
2021/01/14 17:12:09;;;;;;;5.82;4.07;;;;;;;;;;4776394;29;20054;-93
2021/01/14 17:14:41;;;;;;;8.52;3.50;;;;;;;;;;4797076;29;20057;-94
2021/01/14 17:18:03;;;;;;;5.15;4.07;;;;;;;;;;4795856;29;20054;-94
2021/01/14 17:27:33;;;;;;;7.20;3.53;;;;;;;;;;4948128;24;20046;-94
2021/01/14 17:31:13;;;;;;;8.13;3.45;;;;;;;;;;4838084;29;20058;-93
2021/01/14 17:34:39;;;;;;;5.03;3.42;;;;;;;;;;4826086;29;20054;-91
2021/01/14 17:37:13;;;;;;;4.28;3.28;;;;;;;;;;4796922;29;20057;-93
2021/01/14 17:39:42;;;;;;;7.80;3.90;;;;;;;;;;4800609;29;20077;-93
2021/01/14 17:42:31;;;;;;;5.50;3.42;;;;;;;;;;4824773;29;20082;-94
2021/01/14 17:45:06;;;;;;;5.47;3.50;;;;;;;;;;4819651;29;20058;-93
2021/01/14 17:47:50;;;;;;;7.65;3.97;;;;;;;;;;4838635;29;20053;-89
2021/01/14 17:51:16;;;;;;;8.00;3.80;;;3.90;99.90;;;;;;4823134;29;20058;-92
2021/01/14 17:53:51;;;;;;;8.43;4.45;;;;;;;;;;4803914;29;20150;-92
2021/01/14 17:57:12;;;;;;;6.93;4.15;;;3.90;99.90;;;;;;4815686;29;20061;-95
2021/01/14 18:00:26;;;;;;;7.18;4.30;;;3.90;99.90;;;;;;4810085;29;20038;-96
2021/01/14 18:03:03;;;;;;;5.28;3.83;;;;;;;;;;4790155;29;20055;-93
2021/01/14 18:05:33;;;;;;;7.72;5.07;;;;;;;;;;4786989;29;20058;-92
2021/01/14 18:08:28;;;;;;;13.50;8.93;;;;;;;;;;4805875;29;20062;-94
2021/01/14 18:11:16;;;;;;;11.13;6.00;;;;;;;;;;4831794;29;20069;-93
2021/01/14 18:14:06;;;;;;;15.38;6.40;;;;;;;;;;4805499;29;20054;-96
2021/01/14 18:16:41;;;;;;;9.40;5.70;;;;;;;;;;4818204;29;20395;-95
2021/01/14 18:23:22;;;;;;;9.85;6.68;;;;;;;;;;4827887;29;20046;-94
2021/01/14 18:25:59;;;;;;;10.95;5.78;;;;;;;;;;4821441;29;20050;-94
2021/01/14 18:29:53;;;;;;;6.55;4.70;;;3.80;99.90;;;;;;4833567;29;20062;-95
2021/01/14 18:36:42;;;;;;;9.07;4.93;;;;;;;;;;4909024;24;20047;-94
2021/01/14 18:51:37;;;;;;;13.13;6.55;;;;;;;;;;4764605;30;20235;-94
2021/01/14 18:55:22;;;;;;;12.00;6.27;;;3.70;99.90;;;;;;4778903;30;20044;-95
2021/01/14 19:26:31;;;;;;;18.20;9.15;;;;;;;;;;5385053;24;20187;-93
2021/01/14 19:29:11;;;;;;;22.88;9.23;;;;;;;;;;4808367;29;20046;-92
2021/01/14 19:31:56;;;;;;;17.52;9.95;;;;;;;;;;4818600;29;20058;-94
2021/01/14 19:34:39;;;;;;;19.77;9.27;;;;;;;;;;4799770;29;20143;-92
2021/01/14 19:37:13;;;;;;;16.80;9.68;;;;;;;;;;4797510;29;20050;-94
2021/01/14 19:40:33;;;;;;;14.70;9.13;;;;;;;;;;4804962;29;20087;-94
2021/01/14 19:52:20;;;;;;;21.05;11.25;;;3.70;99.90;;;;;;4858473;29;20054;-96
2021/01/14 20:00:59;;;;;;;17.20;7.85;;;3.50;99.90;;;;;;4826542;29;20042;-95
2021/01/14 20:04:39;;;;;;;16.33;8.93;;;;;;;;;;4832753;29;20053;-93
2021/01/14 20:07:36;;;;;;;24.45;11.45;;;;;;;;;;4824875;29;20042;-93
2021/01/14 20:10:37;;;;;;;17.15;9.88;;;;;;;;;;4828774;29;20050;-93
2021/01/14 20:14:34;;;;;;;21.48;10.07;;;;;;;;;;4825637;29;20054;-94
2021/01/14 20:17:19;;;;;;;22.98;9.57;;;;;;;;;;4827350;29;20051;-93
2021/01/14 20:19:52;;;;;;;24.58;11.00;;;;;;;;;;4858087;24;20054;-93
2021/01/14 20:22:40;;;;;;;27.67;10.07;;;;;;;;;;4818511;29;20068;-93
2021/01/14 20:25:43;;;;;;;19.13;9.77;;;3.60;99.90;;;;;;4840627;29;20068;-92
2021/01/14 20:28:23;;;;;;;18.80;10.80;;;;;;;;;;4839478;29;20068;-92
2021/01/14 20:30:55;;;;;;;20.50;8.95;;;;;;;;;;4833381;29;20495;-93